Strona główna
METAR-TAF:

METAR-TAF

Lotnisko :

Gove, Australia

Szerokość geograficzna: 12-16-12S, Długość geograficzna: 136-49-06E, wysokość: 62 m

Aktualna obserwacja pogody

Raport powstał 42 minut temu, godzina 01:00 UTC
Wiatr 12 kt od wschodnio-południowy wschód
Temperatura 27°C
Wilgotność 58%
Ciśnienie 1015 hPa
Widzialność 10 km lub więcej
Mało chmury na wysokości 2500 ft

METAR: YPGV 260100Z 11012KT 9999 FEW025 27/18 Q1015

czas: 11:12 (01:42 UTC)

Prognoza

Raport powstał 1 godzina i 4 minut temu, godzina 00:38 UTC
Prognoza ważna od 26 godzina 02 UTC do 26 godzina 14 UTC
Wiatr 13 kt od wschód
Widzialność 10 km lub więcej
Rozproszone chmury na wysokości 2500 ft
Od 26 godzina 0900 UTC
Wiatr 5 kt od południowo-południowy wschód
Widzialność 10 km lub więcej
Rozproszone chmury na wysokości 2000 ft

TAF: YPGV 260038Z 2602/2614 10013KT 9999 SCT025 FM260900 15005KT 9999 SCT020

Obserwacja i prognoza pogody dla ponad 4000 lotnisk (raport METAR i TAF).

Dostępne stacje oznaczono żółtymi i czerwonymi punktami na mapie.

Najedź kursorem aby zobaczyć nazwę stacji.

Kliknij aby zobaczyć obserwacje i prognozy pogody.

Aby zmienić mapę: kliknij na zielony przycisk z czarnym krzyżykiem, aby powiększyć; na zielony przycisk z myślnikiem, aby pomniejszyć; na zielone strzałki, aby przejść do map sąsiednich.


METAR-TAF: